createdAt,value
2022-10-05T00:00:47.364Z,101270.52
2022-10-05T00:03:39.044Z,101268.30
2022-10-05T00:06:11.231Z,101271.17
2022-10-05T00:08:39.333Z,101270.15
2022-10-05T00:11:09.027Z,101274.96
2022-10-05T00:13:36.986Z,101275.77
2022-10-05T00:16:21.444Z,101277.45
2022-10-05T00:18:53.210Z,101274.57
2022-10-05T00:21:27.456Z,101275.47
2022-10-05T00:23:57.730Z,101280.24
2022-10-05T00:26:32.275Z,101283.74
2022-10-05T00:29:02.716Z,101284.98
2022-10-05T00:31:32.477Z,101285.58
2022-10-05T00:34:00.566Z,101287.27
2022-10-05T00:36:28.538Z,101288.23
2022-10-05T00:38:56.317Z,101284.56
2022-10-05T00:41:29.183Z,101277.98
2022-10-05T00:43:59.915Z,101279.66
2022-10-05T00:46:33.935Z,101279.89
2022-10-05T00:49:19.710Z,101281.85
2022-10-05T00:52:08.987Z,101286.80
2022-10-05T00:54:50.873Z,101291.74
2022-10-05T00:57:43.022Z,101296.02
2022-10-05T01:00:19.209Z,101296.35
2022-10-05T01:02:53.927Z,101297.65
2022-10-05T01:05:43.679Z,101294.64
2022-10-05T01:08:26.701Z,101296.02
2022-10-05T01:11:26.291Z,101294.80
2022-10-05T01:14:16.084Z,101292.11
2022-10-05T01:16:50.224Z,101288.65
2022-10-05T01:19:39.777Z,101286.30
2022-10-05T01:22:08.234Z,101284.77
2022-10-05T01:24:58.248Z,101284.31
2022-10-05T01:27:59.642Z,101287.02
2022-10-05T01:30:33.605Z,101286.13
2022-10-05T01:33:18.258Z,101285.55
2022-10-05T01:36:07.964Z,101289.53
2022-10-05T01:39:04.268Z,101283.56
2022-10-05T01:42:15.551Z,101287.14
2022-10-05T01:44:56.217Z,101290.04
2022-10-05T01:47:47.193Z,101287.98
2022-10-05T01:50:23.012Z,101279.77
2022-10-05T01:53:05.799Z,101277.17
2022-10-05T01:55:56.805Z,101273.94
2022-10-05T01:58:38.288Z,101277.48
2022-10-05T02:01:12.319Z,101279.30
2022-10-05T02:03:49.587Z,101279.86
2022-10-05T02:06:26.316Z,101284.89
2022-10-05T02:09:05.857Z,101289.77
2022-10-05T02:11:35.399Z,101291.36
2022-10-05T02:14:11.258Z,101297.63
2022-10-05T02:16:47.385Z,101300.56
2022-10-05T02:19:31.057Z,101302.90
2022-10-05T02:22:37.302Z,101304.85
2022-10-05T02:25:12.789Z,101302.75
2022-10-05T02:27:55.306Z,101304.14
2022-10-05T02:30:23.552Z,101308.23
2022-10-05T02:33:06.762Z,101310.63
2022-10-05T02:35:34.984Z,101314.38
2022-10-05T02:38:11.616Z,101318.00
2022-10-05T02:41:06.426Z,101323.33
2022-10-05T02:43:56.909Z,101328.83
2022-10-05T02:46:49.169Z,101332.61
2022-10-05T02:49:37.374Z,101332.73
2022-10-05T02:52:41.106Z,101332.65
2022-10-05T02:55:52.491Z,101336.92
2022-10-05T02:58:25.938Z,101341.96
2022-10-05T03:01:06.868Z,101343.95
2022-10-05T03:03:43.119Z,101344.33
2022-10-05T03:06:21.717Z,101345.77
2022-10-05T03:09:03.732Z,101349.95
2022-10-05T03:11:45.687Z,101347.88
2022-10-05T03:14:26.091Z,101349.36
2022-10-05T03:17:25.875Z,101346.15
2022-10-05T03:19:54.344Z,101349.21
2022-10-05T03:22:44.272Z,101348.25
2022-10-05T03:25:30.714Z,101348.85
2022-10-05T03:28:07.688Z,101352.17
2022-10-05T03:30:51.029Z,101351.50
2022-10-05T03:33:34.630Z,101353.27
2022-10-05T03:36:06.272Z,101352.44
2022-10-05T03:38:52.080Z,101352.86
2022-10-05T03:42:00.575Z,101354.17
2022-10-05T03:44:31.660Z,101351.81
2022-10-05T03:47:26.022Z,101350.12
2022-10-05T03:50:19.002Z,101349.00
2022-10-05T03:53:01.571Z,101352.84
2022-10-05T03:56:30.997Z,101348.28
2022-10-05T03:59:20.656Z,101352.80
2022-10-05T04:01:56.973Z,101355.51
2022-10-05T04:04:33.498Z,101359.48
2022-10-05T04:07:02.354Z,101367.48
2022-10-05T04:09:36.672Z,101370.27
2022-10-05T04:12:28.313Z,101371.96
2022-10-05T04:15:06.115Z,101368.80
2022-10-05T04:17:43.214Z,101368.45
2022-10-05T04:20:25.610Z,101370.24
2022-10-05T04:23:25.730Z,101366.33
2022-10-05T04:26:00.728Z,101369.13
2022-10-05T04:28:43.865Z,101373.94
2022-10-05T04:31:21.022Z,101376.55
2022-10-05T04:34:00.211Z,101382.92
2022-10-05T04:36:49.645Z,101385.16
2022-10-05T04:39:23.927Z,101388.23
2022-10-05T04:42:12.344Z,101388.31
2022-10-05T04:44:48.191Z,101391.15
2022-10-05T04:47:37.425Z,101396.17
2022-10-05T04:50:17.689Z,101399.48
2022-10-05T04:52:59.037Z,101399.39
2022-10-05T04:55:40.261Z,101398.02
2022-10-05T04:58:32.962Z,101396.50
2022-10-05T05:01:35.608Z,101397.23
2022-10-05T05:04:32.786Z,101399.94
2022-10-05T05:07:31.035Z,101404.08
2022-10-05T05:10:26.860Z,101398.16
2022-10-05T05:13:04.256Z,101397.14
2022-10-05T05:15:44.464Z,101400.98
2022-10-05T05:18:31.104Z,101408.08
2022-10-05T05:21:05.131Z,101405.21
2022-10-05T05:23:59.202Z,101407.81
2022-10-05T05:26:39.095Z,101407.67
2022-10-05T05:29:43.040Z,101412.30
2022-10-05T05:32:13.489Z,101418.83
2022-10-05T05:34:47.496Z,101421.42
2022-10-05T05:37:32.465Z,101423.50
2022-10-05T05:40:12.311Z,101424.26
2022-10-05T05:42:52.498Z,101420.67
2022-10-05T05:45:32.621Z,101420.21
2022-10-05T05:48:05.566Z,101423.20
2022-10-05T05:50:42.405Z,101424.27
2022-10-05T05:53:18.849Z,101422.05
2022-10-05T05:55:52.345Z,101421.70
2022-10-05T05:58:21.117Z,101421.16
2022-10-05T06:01:04.534Z,101425.48
2022-10-05T06:03:50.963Z,101424.63
2022-10-05T06:06:24.566Z,101423.23
2022-10-05T06:08:57.941Z,101422.48
2022-10-05T06:11:54.190Z,101422.27
2022-10-05T06:14:35.579Z,101426.27
2022-10-05T06:17:17.813Z,101424.63
2022-10-05T06:19:48.927Z,101430.13
2022-10-05T06:22:23.980Z,101429.61
2022-10-05T06:25:12.055Z,101428.46
2022-10-05T06:28:02.908Z,101432.89
2022-10-05T06:30:52.883Z,101431.36
2022-10-05T06:33:45.929Z,101433.28
2022-10-05T06:36:15.365Z,101434.18
2022-10-05T06:39:01.538Z,101440.33
2022-10-05T06:41:57.343Z,101436.33
2022-10-05T06:45:11.275Z,101434.51
2022-10-05T06:48:11.531Z,101432.09
2022-10-05T06:51:04.768Z,101439.17
2022-10-05T06:53:57.816Z,101434.86
2022-10-05T06:56:43.681Z,101435.98
2022-10-05T06:59:12.128Z,101436.89
2022-10-05T07:01:51.690Z,101441.73
2022-10-05T07:04:48.569Z,101449.29
2022-10-05T07:07:29.448Z,101450.50
2022-10-05T07:09:57.442Z,101447.42
2022-10-05T07:12:41.452Z,101449.21
2022-10-05T07:15:16.666Z,101451.73
2022-10-05T07:17:47.255Z,101448.98
2022-10-05T07:20:17.578Z,101453.64
2022-10-05T07:23:07.932Z,101456.19
2022-10-05T07:25:50.587Z,101462.00
2022-10-05T07:28:51.883Z,101462.75
2022-10-05T07:31:36.516Z,101454.19
2022-10-05T07:34:30.394Z,101452.39
2022-10-05T07:37:37.661Z,101452.95
2022-10-05T07:40:12.007Z,101456.88
2022-10-05T07:42:50.469Z,101462.31
2022-10-05T07:45:39.207Z,101466.68
2022-10-05T07:48:18.823Z,101476.52
2022-10-05T07:51:13.362Z,101482.50
2022-10-05T07:53:56.717Z,101481.34
2022-10-05T07:56:41.265Z,101484.72
2022-10-05T07:59:31.830Z,101487.25
2022-10-05T08:02:13.888Z,101496.84
2022-10-05T08:04:56.271Z,101503.97
2022-10-05T08:10:19.968Z,101514.98
2022-10-05T08:13:05.322Z,101518.52
2022-10-05T08:15:43.166Z,101516.55
2022-10-05T08:18:38.838Z,101527.30
2022-10-05T08:21:12.078Z,101539.77
2022-10-05T08:24:02.642Z,101549.73
2022-10-05T08:26:50.168Z,101551.28
2022-10-05T08:29:20.903Z,101557.13
2022-10-05T08:32:03.717Z,101563.78
2022-10-05T08:34:44.079Z,101564.45
2022-10-05T08:37:11.943Z,101559.70
2022-10-05T08:39:48.107Z,101557.80
2022-10-05T08:43:10.139Z,101559.30
2022-10-05T08:46:05.239Z,101561.85
2022-10-05T08:48:58.406Z,101555.83
2022-10-05T08:51:52.845Z,101544.34
2022-10-05T08:54:54.859Z,101538.84
2022-10-05T08:57:22.643Z,101533.70
2022-10-05T09:00:20.435Z,101524.10
2022-10-05T09:03:00.794Z,101519.19
2022-10-05T09:05:58.571Z,101523.32
2022-10-05T09:08:32.116Z,101520.88
2022-10-05T09:11:18.823Z,101510.73
2022-10-05T09:14:06.042Z,101505.41
2022-10-05T09:16:55.922Z,101495.70
2022-10-05T09:19:42.814Z,101498.02
2022-10-05T09:22:30.397Z,101492.84
2022-10-05T09:25:13.288Z,101484.88
2022-10-05T09:28:33.293Z,101481.95
2022-10-05T09:31:46.557Z,101485.29
2022-10-05T09:34:42.637Z,101477.05
2022-10-05T09:37:22.994Z,101476.83
2022-10-05T09:40:13.054Z,101483.68
2022-10-05T09:43:01.217Z,101498.33
2022-10-05T09:46:21.156Z,101503.27
2022-10-05T09:48:51.738Z,101509.17
2022-10-05T09:51:44.951Z,101508.02
2022-10-05T09:55:01.488Z,101502.23
2022-10-05T09:57:53.307Z,101495.81
2022-10-05T10:01:09.407Z,101495.94
2022-10-05T10:04:10.240Z,101488.90
2022-10-05T10:07:05.167Z,101494.40
2022-10-05T10:09:54.739Z,101494.98
2022-10-05T10:12:48.670Z,101492.84
2022-10-05T10:15:41.470Z,101489.71
2022-10-05T10:18:24.735Z,101484.14
2022-10-05T10:21:07.717Z,101481.14
2022-10-05T10:24:09.859Z,101479.40
2022-10-05T10:27:06.742Z,101482.27
2022-10-05T10:29:43.668Z,101492.92
2022-10-05T10:32:49.257Z,101497.88
2022-10-05T10:35:32.827Z,101498.96
2022-10-05T10:38:23.909Z,101500.61
2022-10-05T10:41:04.059Z,101504.52
2022-10-05T10:43:53.021Z,101507.34
2022-10-05T10:46:31.265Z,101508.45
2022-10-05T10:49:42.317Z,101501.04
2022-10-05T10:52:12.938Z,101497.66
2022-10-05T10:54:43.682Z,101494.08
2022-10-05T10:57:19.631Z,101489.40
2022-10-05T11:00:02.752Z,101488.45
2022-10-05T11:02:42.681Z,101486.55
2022-10-05T11:05:32.068Z,101481.52
2022-10-05T11:08:15.195Z,101476.42
2022-10-05T11:11:18.054Z,101467.58
2022-10-05T11:14:10.523Z,101465.61
2022-10-05T11:17:02.772Z,101466.35
2022-10-05T11:20:09.373Z,101469.95
2022-10-05T11:22:59.112Z,101477.45
2022-10-05T11:25:56.035Z,101479.77
2022-10-05T11:28:42.925Z,101485.23
2022-10-05T11:31:25.508Z,101486.86
2022-10-05T11:34:31.031Z,101478.65
2022-10-05T11:37:23.275Z,101470.59
2022-10-05T11:40:14.407Z,101467.70
2022-10-05T11:43:05.803Z,101465.23
2022-10-05T11:45:54.563Z,101471.82
2022-10-05T11:48:47.781Z,101480.45
2022-10-05T11:51:41.490Z,101477.65
2022-10-05T11:54:09.253Z,101471.88
2022-10-05T11:56:44.814Z,101472.96
2022-10-05T11:59:39.600Z,101478.00
2022-10-05T12:02:44.516Z,101474.69
2022-10-05T12:05:24.579Z,101478.34
2022-10-05T12:07:58.796Z,101478.32
2022-10-05T12:10:43.555Z,101474.30
2022-10-05T12:13:31.266Z,101473.02
2022-10-05T12:16:01.880Z,101469.81
2022-10-05T12:18:29.634Z,101468.02
2022-10-05T12:21:27.645Z,101472.25
2022-10-05T12:24:26.785Z,101471.34
2022-10-05T12:27:17.151Z,101465.64
2022-10-05T12:30:11.329Z,101455.83
2022-10-05T12:32:59.364Z,101455.85
2022-10-05T12:35:49.286Z,101461.88
2022-10-05T12:38:33.663Z,101463.02
2022-10-05T12:41:13.600Z,101457.35
2022-10-05T12:43:50.199Z,101453.65
2022-10-05T12:46:45.597Z,101450.69
2022-10-05T12:49:35.625Z,101446.67
2022-10-05T12:52:20.285Z,101436.00
2022-10-05T12:54:58.078Z,101437.52
2022-10-05T12:57:53.900Z,101439.39
2022-10-05T13:00:23.407Z,101439.96
2022-10-05T13:03:04.053Z,101439.69
2022-10-05T13:06:02.751Z,101437.77
2022-10-05T13:08:48.853Z,101440.98
2022-10-05T13:11:24.463Z,101437.64
2022-10-05T13:14:02.501Z,101432.84
2022-10-05T13:16:33.482Z,101427.24
2022-10-05T13:19:26.195Z,101424.75
2022-10-05T13:21:59.997Z,101424.95
2022-10-05T13:24:59.431Z,101428.91
2022-10-05T13:27:35.562Z,101420.33
2022-10-05T13:30:16.094Z,101413.28
2022-10-05T13:33:06.021Z,101405.73
2022-10-05T13:35:55.511Z,101401.80
2022-10-05T13:39:03.777Z,101399.64
2022-10-05T13:41:40.454Z,101394.45
2022-10-05T13:44:23.362Z,101391.57
2022-10-05T13:47:00.982Z,101398.17
2022-10-05T13:49:48.391Z,101393.39
2022-10-05T13:52:35.187Z,101393.30
2022-10-05T13:55:21.403Z,101391.64
2022-10-05T13:58:06.030Z,101387.10
2022-10-05T14:00:44.958Z,101385.14
2022-10-05T14:03:35.251Z,101385.80
2022-10-05T14:06:13.911Z,101392.60
2022-10-05T14:08:52.397Z,101393.06
2022-10-05T14:11:35.092Z,101393.17
2022-10-05T14:14:23.894Z,101397.64
2022-10-05T14:16:55.214Z,101395.99
2022-10-05T14:19:23.837Z,101392.11
2022-10-05T14:21:59.544Z,101392.95
2022-10-05T14:24:45.583Z,101391.84
2022-10-05T14:27:19.679Z,101389.02
2022-10-05T14:29:57.376Z,101387.15
2022-10-05T14:32:30.056Z,101385.54
2022-10-05T14:35:18.064Z,101385.88
2022-10-05T14:37:57.387Z,101386.73
2022-10-05T14:40:33.182Z,101387.46
2022-10-05T14:43:16.301Z,101387.54
2022-10-05T14:45:53.397Z,101383.30
2022-10-05T14:48:22.651Z,101379.49
2022-10-05T14:50:50.497Z,101384.05
2022-10-05T14:53:21.558Z,101382.73
2022-10-05T14:56:17.139Z,101379.88
2022-10-05T14:59:00.438Z,101375.20
2022-10-05T15:01:36.126Z,101370.67
2022-10-05T15:04:32.317Z,101369.98
2022-10-05T15:07:26.295Z,101373.52
2022-10-05T15:10:39.073Z,101373.51
2022-10-05T15:13:18.612Z,101378.54
2022-10-05T15:15:58.690Z,101381.42
2022-10-05T15:18:43.362Z,101385.02
2022-10-05T15:22:08.574Z,101387.66
2022-10-05T15:24:43.401Z,101385.42
2022-10-05T15:27:39.967Z,101391.00
2022-10-05T15:30:12.316Z,101396.91
2022-10-05T15:32:48.468Z,101408.92
2022-10-05T15:35:45.616Z,101418.89
2022-10-05T15:38:26.467Z,101419.05
2022-10-05T15:41:12.207Z,101412.93
2022-10-05T15:43:50.510Z,101409.80
2022-10-05T15:46:24.226Z,101409.11
2022-10-05T15:49:22.062Z,101415.48
2022-10-05T15:52:11.751Z,101419.25
2022-10-05T15:55:00.596Z,101416.30
2022-10-05T15:57:37.479Z,101416.99
2022-10-05T16:00:18.849Z,101416.14
2022-10-05T16:03:17.145Z,101412.81
2022-10-05T16:06:12.552Z,101412.42
2022-10-05T16:08:55.672Z,101410.43
2022-10-05T16:11:45.348Z,101408.09
2022-10-05T16:14:40.444Z,101416.13
2022-10-05T16:17:27.015Z,101418.23
2022-10-05T16:20:03.423Z,101414.67
2022-10-05T16:22:51.053Z,101415.27
2022-10-05T16:25:45.460Z,101410.45
2022-10-05T16:28:31.165Z,101409.80
2022-10-05T16:31:39.442Z,101410.50
2022-10-05T16:34:26.050Z,101414.84
2022-10-05T16:37:09.917Z,101423.41
2022-10-05T16:39:52.762Z,101425.20
2022-10-05T16:42:35.109Z,101433.02
2022-10-05T16:45:22.986Z,101435.21
2022-10-05T16:47:59.535Z,101444.13
2022-10-05T16:50:57.963Z,101451.40
2022-10-05T16:53:40.802Z,101457.69
2022-10-05T16:56:22.196Z,101458.53
2022-10-05T16:59:23.717Z,101464.55
2022-10-05T17:02:15.721Z,101462.24
2022-10-05T17:04:54.381Z,101452.94
2022-10-05T17:07:28.838Z,101459.48
2022-10-05T17:10:03.299Z,101459.44
2022-10-05T17:13:13.700Z,101455.33
2022-10-05T17:16:00.748Z,101451.21
2022-10-05T17:19:10.675Z,101448.71
2022-10-05T17:22:02.203Z,101450.07
2022-10-05T17:24:49.408Z,101447.85
2022-10-05T17:27:35.417Z,101447.26
2022-10-05T17:30:23.844Z,101446.02
2022-10-05T17:33:04.717Z,101447.50
2022-10-05T17:35:41.938Z,101447.44
2022-10-05T17:38:17.195Z,101444.27
2022-10-05T17:41:00.380Z,101439.25
2022-10-05T17:43:30.890Z,101445.91
2022-10-05T17:46:01.274Z,101452.16
2022-10-05T17:48:54.387Z,101456.83
2022-10-05T17:51:46.936Z,101451.45
2022-10-05T17:54:46.615Z,101450.58
2022-10-05T17:57:22.399Z,101451.39
2022-10-05T17:59:53.329Z,101452.84
2022-10-05T18:02:36.828Z,101456.80
2022-10-05T18:05:16.307Z,101458.80
2022-10-05T18:07:50.101Z,101461.48
2022-10-05T18:10:29.957Z,101461.73
2022-10-05T18:13:00.506Z,101466.31
2022-10-05T18:15:28.415Z,101466.69
2022-10-05T18:18:32.263Z,101468.78
2022-10-05T18:21:15.672Z,101473.39
2022-10-05T18:23:58.855Z,101473.13
2022-10-05T18:27:02.560Z,101479.34
2022-10-05T18:30:02.607Z,101477.85
2022-10-05T18:32:47.409Z,101477.19
2022-10-05T18:35:27.392Z,101481.27
2022-10-05T18:38:32.495Z,101477.05
2022-10-05T18:41:21.453Z,101478.20
2022-10-05T18:44:20.765Z,101479.39
2022-10-05T18:47:25.909Z,101477.48
2022-10-05T18:49:59.283Z,101482.16
2022-10-05T18:53:03.264Z,101485.16
2022-10-05T18:55:34.209Z,101487.27
2022-10-05T18:58:26.142Z,101486.14
2022-10-05T19:01:00.346Z,101485.39
2022-10-05T19:03:37.269Z,101484.23
2022-10-05T19:06:29.908Z,101485.05
2022-10-05T19:09:15.096Z,101484.13
2022-10-05T19:11:55.453Z,101482.35
2022-10-05T19:14:51.371Z,101485.93
2022-10-05T19:18:06.483Z,101488.38
2022-10-05T19:21:03.169Z,101490.17
2022-10-05T19:23:33.716Z,101481.86
2022-10-05T19:26:18.994Z,101482.23
2022-10-05T19:29:02.389Z,101477.39
2022-10-05T19:31:41.087Z,101481.02
2022-10-05T19:34:31.021Z,101476.81
2022-10-05T19:37:01.862Z,101477.70
2022-10-05T19:39:54.173Z,101475.05
2022-10-05T19:42:47.255Z,101472.48
2022-10-05T19:45:26.153Z,101474.02
2022-10-05T19:48:15.959Z,101471.25
2022-10-05T19:50:59.393Z,101469.92
2022-10-05T19:53:37.049Z,101470.73
2022-10-05T19:56:22.189Z,101471.09
2022-10-05T19:58:54.567Z,101464.73
2022-10-05T20:01:24.389Z,101463.30
2022-10-05T20:03:54.146Z,101463.16
2022-10-05T20:06:39.398Z,101467.70
2022-10-05T20:09:25.434Z,101466.50
2022-10-05T20:11:56.843Z,101470.95
2022-10-05T20:14:33.447Z,101470.04
2022-10-05T20:17:45.650Z,101465.17
2022-10-05T20:20:38.327Z,101464.52
2022-10-05T20:23:38.924Z,101465.96
2022-10-05T20:26:25.584Z,101468.66
2022-10-05T20:28:53.417Z,101467.19
2022-10-05T20:31:23.035Z,101470.33
2022-10-05T20:33:50.935Z,101470.42
2022-10-05T20:36:18.809Z,101468.21
2022-10-05T20:38:47.529Z,101471.54
2022-10-05T20:41:16.604Z,101475.09
2022-10-05T20:43:44.551Z,101479.85
2022-10-05T20:46:12.989Z,101475.41
2022-10-05T20:48:40.768Z,101476.46
2022-10-05T20:51:08.804Z,101470.11
2022-10-05T20:53:37.496Z,101470.08
2022-10-05T20:56:05.663Z,101468.98
2022-10-05T20:58:33.409Z,101473.79
2022-10-05T21:01:16.761Z,101466.01
2022-10-05T21:03:44.820Z,101471.34
2022-10-05T21:06:12.995Z,101468.36
2022-10-05T21:08:40.831Z,101472.30
2022-10-05T21:11:11.449Z,101472.66
2022-10-05T21:13:45.373Z,101469.86
2022-10-05T21:16:18.751Z,101468.50
2022-10-05T21:18:48.792Z,101466.42
2022-10-05T21:21:17.962Z,101468.11
2022-10-05T21:23:47.216Z,101465.77
2022-10-05T21:26:15.874Z,101468.42
2022-10-05T21:28:44.003Z,101470.80
2022-10-05T21:31:12.070Z,101466.50
2022-10-05T21:33:39.959Z,101466.38
2022-10-05T21:36:07.813Z,101471.36
2022-10-05T21:38:35.640Z,101469.56
2022-10-05T21:41:04.013Z,101463.66
2022-10-05T21:43:31.931Z,101467.96
2022-10-05T21:46:01.444Z,101465.56
2022-10-05T21:48:31.472Z,101459.66
2022-10-05T21:51:00.690Z,101463.16
2022-10-05T21:53:33.959Z,101459.52
2022-10-05T21:56:05.323Z,101451.64
2022-10-05T21:58:33.197Z,101452.86
2022-10-05T22:01:01.146Z,101450.02
2022-10-05T22:03:30.212Z,101449.20
2022-10-05T22:05:58.135Z,101448.29
2022-10-05T22:08:31.295Z,101450.30
2022-10-05T22:11:00.834Z,101447.34
2022-10-05T22:13:42.045Z,101448.96
2022-10-05T22:16:10.757Z,101444.14
2022-10-05T22:18:39.192Z,101441.92
2022-10-05T22:21:08.498Z,101437.45
2022-10-05T22:23:36.444Z,101437.81
2022-10-05T22:26:06.477Z,101438.99
2022-10-05T22:28:36.605Z,101442.00
2022-10-05T22:31:06.717Z,101440.75
2022-10-05T22:33:34.493Z,101438.90
2022-10-05T22:36:03.434Z,101433.66
2022-10-05T22:38:31.707Z,101432.80
2022-10-05T22:41:00.109Z,101434.14
2022-10-05T22:43:28.073Z,101433.81
2022-10-05T22:45:56.330Z,101431.41
2022-10-05T22:48:24.525Z,101432.33
2022-10-05T22:50:52.389Z,101427.10
2022-10-05T22:53:20.281Z,101427.92
2022-10-05T22:55:48.137Z,101426.98
2022-10-05T22:58:16.045Z,101430.48
2022-10-05T23:00:57.960Z,101429.25
2022-10-05T23:03:26.265Z,101436.70
2022-10-05T23:06:09.213Z,101443.80
2022-10-05T23:08:38.373Z,101444.22
2022-10-05T23:11:08.785Z,101441.89
2022-10-05T23:13:36.802Z,101444.42
2022-10-05T23:16:12.290Z,101442.27
2022-10-05T23:18:40.603Z,101440.66
2022-10-05T23:21:10.728Z,101444.11
2022-10-05T23:23:40.724Z,101447.34
2022-10-05T23:26:11.024Z,101443.77
2022-10-05T23:28:46.532Z,101443.91
2022-10-05T23:31:20.183Z,101444.22
2022-10-05T23:33:48.052Z,101447.92
2022-10-05T23:36:18.696Z,101446.85
2022-10-05T23:38:47.573Z,101443.54
2022-10-05T23:41:16.300Z,101442.69
2022-10-05T23:43:44.414Z,101442.85
2022-10-05T23:46:13.431Z,101437.16
2022-10-05T23:48:41.357Z,101440.30
2022-10-05T23:51:11.412Z,101444.20
2022-10-05T23:53:39.490Z,101446.90
2022-10-05T23:56:07.733Z,101449.37
2022-10-05T23:58:35.695Z,101452.19
